createdAt,value
2019-01-17T00:01:56.528Z,45.37
2019-01-17T00:07:20.061Z,45.38
2019-01-17T00:12:25.161Z,45.35
2019-01-17T00:17:41.954Z,45.36
2019-01-17T00:22:56.225Z,45.35
2019-01-17T00:28:07.121Z,45.35
2019-01-17T00:33:24.100Z,45.38
2019-01-17T00:38:45.628Z,45.38
2019-01-17T00:44:02.764Z,45.39
2019-01-17T00:49:10.802Z,45.39
2019-01-17T00:54:21.372Z,45.40
2019-01-17T00:59:26.490Z,45.40
2019-01-17T01:04:31.589Z,45.42
2019-01-17T01:09:45.365Z,45.45
2019-01-17T01:15:09.406Z,45.44
2019-01-17T01:20:14.512Z,45.45
2019-01-17T01:25:37.451Z,45.48
2019-01-17T01:30:57.257Z,45.49
2019-01-17T01:36:05.353Z,45.48
2019-01-17T01:41:25.580Z,45.51
2019-01-17T01:46:30.695Z,45.55
2019-01-17T01:51:44.737Z,45.53
2019-01-17T01:56:48.219Z,45.55
2019-01-17T02:01:51.695Z,45.55
2019-01-17T02:06:55.175Z,45.56
2019-01-17T02:11:58.650Z,45.59
2019-01-17T02:17:02.330Z,45.60
2019-01-17T02:22:05.801Z,45.61
2019-01-17T02:27:09.284Z,45.59
2019-01-17T02:32:12.751Z,45.61
2019-01-17T02:37:16.230Z,45.62
2019-01-17T02:42:19.777Z,45.63
2019-01-17T02:47:23.256Z,45.62
2019-01-17T02:52:26.731Z,45.65
2019-01-17T02:57:30.214Z,45.62
2019-01-17T03:02:33.690Z,45.69
2019-01-17T03:07:37.170Z,45.64
2019-01-17T03:12:40.646Z,45.67
2019-01-17T03:17:44.126Z,45.62
2019-01-17T03:22:47.646Z,45.65
2019-01-17T03:27:51.158Z,45.69
2019-01-17T03:32:54.635Z,45.69
2019-01-17T03:37:58.105Z,45.67
2019-01-17T03:43:01.593Z,45.72
2019-01-17T03:48:05.058Z,45.70
2019-01-17T03:53:08.539Z,45.70
2019-01-17T03:58:12.016Z,45.69
2019-01-17T04:03:17.061Z,45.71
2019-01-17T04:08:20.541Z,45.68
2019-01-17T04:13:24.014Z,45.73
2019-01-17T04:18:27.490Z,45.71
2019-01-17T04:23:30.975Z,45.73
2019-01-17T04:28:34.462Z,45.76
2019-01-17T04:33:37.922Z,45.75
2019-01-17T04:38:41.401Z,45.74
2019-01-17T04:43:44.865Z,45.75
2019-01-17T04:48:48.343Z,45.74
2019-01-17T04:53:51.820Z,45.75
2019-01-17T04:58:55.298Z,45.79
2019-01-17T05:03:58.779Z,45.85
2019-01-17T05:09:02.259Z,45.86
2019-01-17T05:14:05.819Z,45.89
2019-01-17T05:19:09.298Z,45.92
2019-01-17T05:24:12.774Z,45.97
2019-01-17T05:29:16.259Z,45.97
2019-01-17T05:34:19.734Z,45.95
2019-01-17T05:39:23.209Z,45.99
2019-01-17T05:44:26.681Z,46.02
2019-01-17T05:49:30.158Z,46.05
2019-01-17T05:54:33.629Z,46.00
2019-01-17T05:59:37.111Z,46.03
2019-01-17T06:04:40.586Z,46.04
2019-01-17T06:09:44.065Z,46.03
2019-01-17T06:14:47.547Z,46.06
2019-01-17T06:19:51.023Z,46.06
2019-01-17T06:24:54.503Z,46.06
2019-01-17T06:29:57.977Z,46.08
2019-01-17T06:35:01.536Z,46.06
2019-01-17T06:40:11.512Z,46.09
2019-01-17T06:45:15.165Z,46.08
2019-01-17T06:50:18.645Z,46.08
2019-01-17T06:55:22.124Z,46.09
2019-01-17T07:00:25.585Z,46.12
2019-01-17T07:05:29.056Z,46.08
2019-01-17T07:10:32.531Z,46.13
2019-01-17T07:15:35.985Z,46.07
2019-01-17T07:20:39.453Z,46.11
2019-01-17T07:25:42.927Z,46.11
2019-01-17T07:30:46.387Z,46.12
2019-01-17T07:35:49.846Z,46.14
2019-01-17T07:40:53.314Z,46.11
2019-01-17T07:45:56.770Z,46.13
2019-01-17T07:51:00.229Z,46.14
2019-01-17T07:56:04.177Z,46.13
2019-01-17T08:01:07.625Z,46.14
2019-01-17T08:06:11.085Z,41.67
2019-01-17T08:11:14.541Z,32.22
2019-01-17T08:16:18.071Z,31.77
2019-01-17T08:21:21.536Z,32.49
2019-01-17T08:26:24.993Z,32.35
2019-01-17T08:31:28.459Z,33.42
2019-01-17T08:36:31.919Z,34.25
2019-01-17T08:41:35.378Z,36.05
2019-01-17T08:46:38.844Z,37.06
2019-01-17T08:51:42.312Z,37.80
2019-01-17T08:56:45.781Z,38.43
2019-01-17T09:01:49.243Z,38.90
2019-01-17T09:06:52.708Z,39.33
2019-01-17T09:11:56.176Z,39.57
2019-01-17T09:16:59.633Z,39.77
2019-01-17T09:22:03.095Z,39.88
2019-01-17T09:27:06.553Z,39.99
2019-01-17T09:32:10.082Z,40.60
2019-01-17T09:37:13.541Z,40.60
2019-01-17T09:42:17.008Z,40.71
2019-01-17T09:47:20.470Z,41.21
2019-01-17T09:52:23.929Z,41.69
2019-01-17T09:57:27.390Z,42.03
2019-01-17T10:02:30.849Z,42.31
2019-01-17T10:07:34.312Z,42.85
2019-01-17T10:12:37.770Z,43.29
2019-01-17T10:17:46.720Z,43.04
2019-01-17T10:23:08.232Z,42.86
2019-01-17T10:28:49.756Z,42.97
2019-01-17T10:33:58.935Z,43.21
2019-01-17T10:39:17.162Z,43.42
2019-01-17T10:44:35.161Z,43.54
2019-01-17T10:49:59.329Z,44.04
2019-01-17T10:55:34.357Z,44.70
2019-01-17T11:00:40.883Z,45.20
2019-01-17T11:05:55.623Z,45.74
2019-01-17T11:11:14.013Z,47.33
2019-01-17T11:16:44.327Z,48.27
2019-01-17T11:21:56.397Z,48.84
2019-01-17T11:27:25.397Z,48.28
2019-01-17T11:32:50.983Z,48.28
2019-01-17T11:38:03.343Z,48.92
2019-01-17T11:43:26.439Z,48.98
2019-01-17T11:48:38.817Z,49.24
2019-01-17T11:53:45.593Z,48.97
2019-01-17T11:59:00.089Z,48.67
2019-01-17T12:04:31.389Z,48.38
2019-01-17T12:09:34.852Z,48.54
2019-01-17T12:14:38.313Z,48.51
2019-01-17T12:19:41.775Z,48.51
2019-01-17T12:24:45.237Z,48.31
2019-01-17T12:29:48.704Z,48.10
2019-01-17T12:34:52.169Z,48.16
2019-01-17T12:39:55.624Z,48.14
2019-01-17T12:44:59.090Z,48.13
2019-01-17T12:50:02.541Z,48.06
2019-01-17T12:55:08.243Z,47.92
2019-01-17T13:00:14.906Z,48.06
2019-01-17T13:05:18.551Z,48.16
2019-01-17T13:10:21.976Z,48.07
2019-01-17T13:15:25.440Z,46.31
2019-01-17T13:20:28.907Z,34.40
2019-01-17T13:25:32.441Z,32.55
2019-01-17T13:30:35.911Z,32.37
2019-01-17T13:35:39.542Z,34.44
2019-01-17T13:40:43.001Z,36.11
2019-01-17T13:45:46.462Z,38.01
2019-01-17T13:50:49.930Z,38.66
2019-01-17T13:55:53.398Z,39.34
2019-01-17T14:00:56.860Z,40.10
2019-01-17T14:06:00.328Z,40.58
2019-01-17T14:11:04.258Z,41.03
2019-01-17T14:16:07.887Z,41.31
2019-01-17T14:21:11.418Z,41.40
2019-01-17T14:26:14.880Z,41.71
2019-01-17T14:31:18.341Z,41.83
2019-01-17T14:36:21.803Z,41.88
2019-01-17T14:41:25.263Z,41.92
2019-01-17T14:46:28.736Z,42.02
2019-01-17T14:51:32.194Z,42.19
2019-01-17T14:56:35.655Z,42.35
2019-01-17T15:01:39.134Z,42.58
2019-01-17T15:06:42.580Z,42.78
2019-01-17T15:11:46.048Z,42.88
2019-01-17T15:16:49.505Z,43.06
2019-01-17T15:21:52.986Z,43.16
2019-01-17T15:26:56.438Z,43.20
2019-01-17T15:31:59.897Z,43.29
2019-01-17T15:37:03.532Z,43.33
2019-01-17T15:42:06.994Z,43.43
2019-01-17T15:47:13.208Z,43.49
2019-01-17T15:52:15.640Z,43.56
2019-01-17T15:57:19.102Z,43.64
2019-01-17T16:02:22.569Z,43.69
2019-01-17T16:07:26.021Z,43.75
2019-01-17T16:12:29.483Z,43.78
2019-01-17T16:17:32.950Z,43.85
2019-01-17T16:22:36.418Z,43.91
2019-01-17T16:27:41.828Z,43.98
2019-01-17T16:32:45.137Z,44.00
2019-01-17T16:37:48.599Z,44.15
2019-01-17T16:42:52.124Z,44.09
2019-01-17T16:47:55.591Z,44.07
2019-01-17T16:52:59.046Z,44.08
2019-01-17T16:58:02.510Z,44.11
2019-01-17T17:03:05.996Z,44.17
2019-01-17T17:08:09.625Z,44.21
2019-01-17T17:13:13.118Z,44.32
2019-01-17T17:18:16.579Z,44.33
2019-01-17T17:23:20.058Z,44.49
2019-01-17T17:28:23.544Z,44.73
2019-01-17T17:33:27.026Z,44.75
2019-01-17T17:38:30.502Z,44.79
2019-01-17T17:43:33.982Z,44.75
2019-01-17T17:48:38.670Z,44.72
2019-01-17T17:53:42.223Z,44.65
2019-01-17T17:58:45.704Z,44.61
2019-01-17T18:03:49.185Z,44.60
2019-01-17T18:08:52.669Z,44.69
2019-01-17T18:13:56.125Z,44.98
2019-01-17T18:18:59.588Z,45.09
2019-01-17T18:24:03.048Z,45.17
2019-01-17T18:29:06.500Z,45.25
2019-01-17T18:34:10.028Z,45.30
2019-01-17T18:39:13.731Z,45.32
2019-01-17T18:44:17.195Z,45.33
2019-01-17T18:49:21.187Z,45.41
2019-01-17T18:54:25.255Z,45.44
2019-01-17T18:59:28.718Z,45.41
2019-01-17T19:04:32.179Z,45.34
2019-01-17T19:09:35.637Z,45.25
2019-01-17T19:14:39.100Z,45.20
2019-01-17T19:19:42.566Z,45.15
2019-01-17T19:24:46.031Z,45.04
2019-01-17T19:29:49.488Z,44.91
2019-01-17T19:34:52.949Z,44.83
2019-01-17T19:39:56.606Z,44.71
2019-01-17T19:45:00.179Z,44.63
2019-01-17T19:50:05.188Z,44.57
2019-01-17T19:55:08.791Z,44.49
2019-01-17T20:00:15.260Z,44.44
2019-01-17T20:05:24.373Z,44.36
2019-01-17T20:10:32.788Z,44.35
2019-01-17T20:15:36.491Z,43.66
2019-01-17T20:20:41.994Z,43.24
2019-01-17T20:25:45.449Z,43.24
2019-01-17T20:30:48.904Z,43.39
2019-01-17T20:35:52.376Z,43.41
2019-01-17T20:40:58.303Z,43.37
2019-01-17T20:46:01.027Z,43.41
2019-01-17T20:51:04.557Z,43.50
2019-01-17T20:56:08.014Z,43.50
2019-01-17T21:01:28.908Z,43.52
2019-01-17T21:06:32.330Z,43.53
2019-01-17T21:11:35.789Z,43.52
2019-01-17T21:16:39.249Z,43.41
2019-01-17T21:21:42.710Z,43.42
2019-01-17T21:26:46.169Z,43.45
2019-01-17T21:31:49.630Z,43.48
2019-01-17T21:36:53.091Z,43.53
2019-01-17T21:41:56.569Z,43.58
2019-01-17T21:47:00.050Z,43.61
2019-01-17T21:52:03.535Z,43.61
2019-01-17T21:57:07.030Z,43.67
2019-01-17T22:02:11.341Z,43.67
2019-01-17T22:07:14.817Z,43.69
2019-01-17T22:12:18.302Z,43.71
2019-01-17T22:17:21.783Z,43.75
2019-01-17T22:22:25.261Z,43.76
2019-01-17T22:27:28.738Z,43.82
2019-01-17T22:32:32.254Z,43.85
2019-01-17T22:37:35.734Z,43.95
2019-01-17T22:42:39.209Z,44.02
2019-01-17T22:47:43.330Z,44.14
2019-01-17T22:52:47.774Z,44.18
2019-01-17T22:57:51.271Z,44.23
2019-01-17T23:02:54.749Z,44.33
2019-01-17T23:07:58.346Z,44.38
2019-01-17T23:13:01.825Z,44.43
2019-01-17T23:18:05.568Z,44.51
2019-01-17T23:23:09.047Z,44.50
2019-01-17T23:28:13.541Z,44.57
2019-01-17T23:33:17.019Z,44.70
2019-01-17T23:38:20.497Z,44.70
2019-01-17T23:43:24.037Z,44.68
2019-01-17T23:48:27.464Z,44.75
2019-01-17T23:53:30.942Z,44.76
2019-01-17T23:58:34.427Z,44.83
